sensor_id;sensor_type;location;lat;lon;timestamp;P1;durP1;ratioP1;P2;durP2;ratioP2
15256;SDS011;7731;50.720;6.912;2023-09-30T00:00:55;6.35;;;5.22;;
15256;SDS011;7731;50.720;6.912;2023-09-30T00:03:26;12.10;;;5.05;;
15256;SDS011;7731;50.720;6.912;2023-09-30T00:05:56;8.80;;;5.50;;
15256;SDS011;7731;50.720;6.912;2023-09-30T00:08:27;9.10;;;5.55;;
15256;SDS011;7731;50.720;6.912;2023-09-30T00:10:57;9.02;;;5.72;;
15256;SDS011;7731;50.720;6.912;2023-09-30T00:13:30;14.05;;;6.90;;
15256;SDS011;7731;50.720;6.912;2023-09-30T00:16:00;8.75;;;5.30;;
15256;SDS011;7731;50.720;6.912;2023-09-30T00:18:33;8.77;;;5.28;;
15256;SDS011;7731;50.720;6.912;2023-09-30T00:21:04;8.00;;;4.95;;
15256;SDS011;7731;50.720;6.912;2023-09-30T00:23:34;8.10;;;5.22;;
15256;SDS011;7731;50.720;6.912;2023-09-30T00:26:07;7.25;;;5.18;;
15256;SDS011;7731;50.720;6.912;2023-09-30T00:28:40;9.15;;;5.65;;
15256;SDS011;7731;50.720;6.912;2023-09-30T00:31:10;6.65;;;4.70;;
15256;SDS011;7731;50.720;6.912;2023-09-30T00:33:41;8.93;;;5.38;;
15256;SDS011;7731;50.720;6.912;2023-09-30T00:36:11;8.25;;;5.22;;
15256;SDS011;7731;50.720;6.912;2023-09-30T00:38:41;9.60;;;5.95;;
15256;SDS011;7731;50.720;6.912;2023-09-30T00:41:12;8.25;;;6.00;;
15256;SDS011;7731;50.720;6.912;2023-09-30T00:43:45;11.50;;;5.88;;
15256;SDS011;7731;50.720;6.912;2023-09-30T00:46:18;7.82;;;5.55;;
15256;SDS011;7731;50.720;6.912;2023-09-30T00:48:58;7.18;;;5.10;;
15256;SDS011;7731;50.720;6.912;2023-09-30T00:51:30;11.30;;;5.45;;
15256;SDS011;7731;50.720;6.912;2023-09-30T00:54:02;6.63;;;5.25;;
15256;SDS011;7731;50.720;6.912;2023-09-30T00:56:37;7.70;;;5.75;;
15256;SDS011;7731;50.720;6.912;2023-09-30T00:59:19;8.90;;;5.85;;
15256;SDS011;7731;50.720;6.912;2023-09-30T01:01:52;7.93;;;5.70;;
15256;SDS011;7731;50.720;6.912;2023-09-30T01:04:27;10.98;;;7.70;;
15256;SDS011;7731;50.720;6.912;2023-09-30T01:06:58;9.50;;;6.63;;
15256;SDS011;7731;50.720;6.912;2023-09-30T01:09:28;6.72;;;5.22;;
15256;SDS011;7731;50.720;6.912;2023-09-30T01:12:03;6.18;;;5.10;;
15256;SDS011;7731;50.720;6.912;2023-09-30T01:14:37;7.85;;;5.47;;
15256;SDS011;7731;50.720;6.912;2023-09-30T01:17:09;7.25;;;5.13;;
15256;SDS011;7731;50.720;6.912;2023-09-30T01:19:40;8.40;;;5.22;;
15256;SDS011;7731;50.720;6.912;2023-09-30T01:22:16;6.95;;;5.50;;
15256;SDS011;7731;50.720;6.912;2023-09-30T01:24:47;7.88;;;5.95;;
15256;SDS011;7731;50.720;6.912;2023-09-30T01:27:17;10.32;;;6.18;;
15256;SDS011;7731;50.720;6.912;2023-09-30T01:29:48;8.05;;;6.05;;
15256;SDS011;7731;50.720;6.912;2023-09-30T01:32:18;8.85;;;6.32;;
15256;SDS011;7731;50.720;6.912;2023-09-30T01:34:48;8.32;;;5.90;;
15256;SDS011;7731;50.720;6.912;2023-09-30T01:37:21;7.93;;;5.63;;
15256;SDS011;7731;50.720;6.912;2023-09-30T01:39:56;8.50;;;5.85;;
15256;SDS011;7731;50.720;6.912;2023-09-30T01:42:26;8.40;;;5.90;;
15256;SDS011;7731;50.720;6.912;2023-09-30T01:44:56;8.50;;;5.60;;
15256;SDS011;7731;50.720;6.912;2023-09-30T01:47:27;7.10;;;5.35;;
15256;SDS011;7731;50.720;6.912;2023-09-30T01:49:57;10.02;;;5.55;;
15256;SDS011;7731;50.720;6.912;2023-09-30T01:52:30;8.35;;;6.60;;
15256;SDS011;7731;50.720;6.912;2023-09-30T01:55:01;9.95;;;6.15;;
15256;SDS011;7731;50.720;6.912;2023-09-30T01:57:31;9.25;;;6.18;;
15256;SDS011;7731;50.720;6.912;2023-09-30T02:00:02;8.75;;;5.90;;
15256;SDS011;7731;50.720;6.912;2023-09-30T02:02:35;10.68;;;6.70;;
15256;SDS011;7731;50.720;6.912;2023-09-30T02:05:06;6.65;;;5.25;;
15256;SDS011;7731;50.720;6.912;2023-09-30T02:07:41;9.07;;;5.88;;
15256;SDS011;7731;50.720;6.912;2023-09-30T02:10:11;7.13;;;6.13;;
15256;SDS011;7731;50.720;6.912;2023-09-30T02:12:42;8.13;;;5.78;;
15256;SDS011;7731;50.720;6.912;2023-09-30T02:15:12;9.60;;;5.68;;
15256;SDS011;7731;50.720;6.912;2023-09-30T02:17:43;11.88;;;6.90;;
15256;SDS011;7731;50.720;6.912;2023-09-30T02:20:15;9.93;;;6.18;;
15256;SDS011;7731;50.720;6.912;2023-09-30T02:22:56;7.65;;;6.45;;
15256;SDS011;7731;50.720;6.912;2023-09-30T02:25:29;12.25;;;6.40;;
15256;SDS011;7731;50.720;6.912;2023-09-30T02:28:00;11.57;;;7.10;;
15256;SDS011;7731;50.720;6.912;2023-09-30T02:30:30;9.75;;;6.43;;
15256;SDS011;7731;50.720;6.912;2023-09-30T02:33:01;9.60;;;6.72;;
15256;SDS011;7731;50.720;6.912;2023-09-30T02:35:33;11.18;;;6.35;;
15256;SDS011;7731;50.720;6.912;2023-09-30T02:38:07;8.60;;;5.82;;
15256;SDS011;7731;50.720;6.912;2023-09-30T02:40:38;10.82;;;6.30;;
15256;SDS011;7731;50.720;6.912;2023-09-30T02:43:12;9.93;;;6.10;;
15256;SDS011;7731;50.720;6.912;2023-09-30T02:45:45;12.13;;;6.72;;
15256;SDS011;7731;50.720;6.912;2023-09-30T02:48:17;8.90;;;6.30;;
15256;SDS011;7731;50.720;6.912;2023-09-30T02:50:47;9.70;;;6.50;;
15256;SDS011;7731;50.720;6.912;2023-09-30T02:53:20;9.90;;;6.65;;
15256;SDS011;7731;50.720;6.912;2023-09-30T02:55:51;10.07;;;6.63;;
15256;SDS011;7731;50.720;6.912;2023-09-30T02:58:26;9.13;;;6.15;;
15256;SDS011;7731;50.720;6.912;2023-09-30T03:00:56;8.50;;;6.43;;
15256;SDS011;7731;50.720;6.912;2023-09-30T03:03:28;9.20;;;5.82;;
15256;SDS011;7731;50.720;6.912;2023-09-30T03:06:00;6.13;;;5.50;;
15256;SDS011;7731;50.720;6.912;2023-09-30T03:08:33;9.93;;;6.38;;
15256;SDS011;7731;50.720;6.912;2023-09-30T03:11:04;8.38;;;6.57;;
15256;SDS011;7731;50.720;6.912;2023-09-30T03:13:34;9.10;;;6.03;;
15256;SDS011;7731;50.720;6.912;2023-09-30T03:16:07;8.50;;;5.60;;
15256;SDS011;7731;50.720;6.912;2023-09-30T03:18:37;10.32;;;6.45;;
15256;SDS011;7731;50.720;6.912;2023-09-30T03:21:13;9.90;;;6.50;;
15256;SDS011;7731;50.720;6.912;2023-09-30T03:23:47;9.20;;;5.75;;
15256;SDS011;7731;50.720;6.912;2023-09-30T03:26:17;10.48;;;7.07;;
15256;SDS011;7731;50.720;6.912;2023-09-30T03:28:47;9.35;;;6.65;;
15256;SDS011;7731;50.720;6.912;2023-09-30T03:31:25;10.23;;;6.75;;
15256;SDS011;7731;50.720;6.912;2023-09-30T03:33:56;10.50;;;6.50;;
15256;SDS011;7731;50.720;6.912;2023-09-30T03:36:26;11.23;;;5.57;;
15256;SDS011;7731;50.720;6.912;2023-09-30T03:38:59;5.90;;;5.10;;
15256;SDS011;7731;50.720;6.912;2023-09-30T03:41:33;8.27;;;5.32;;
15256;SDS011;7731;50.720;6.912;2023-09-30T03:44:04;8.40;;;5.13;;
15256;SDS011;7731;50.720;6.912;2023-09-30T03:46:35;9.13;;;5.63;;
15256;SDS011;7731;50.720;6.912;2023-09-30T03:49:05;9.07;;;6.32;;
15256;SDS011;7731;50.720;6.912;2023-09-30T03:51:35;7.95;;;5.68;;
15256;SDS011;7731;50.720;6.912;2023-09-30T03:54:13;7.68;;;5.88;;
15256;SDS011;7731;50.720;6.912;2023-09-30T03:56:44;9.15;;;5.70;;
15256;SDS011;7731;50.720;6.912;2023-09-30T03:59:15;6.38;;;5.50;;
15256;SDS011;7731;50.720;6.912;2023-09-30T04:01:46;7.10;;;5.15;;
15256;SDS011;7731;50.720;6.912;2023-09-30T04:04:17;9.70;;;5.47;;
15256;SDS011;7731;50.720;6.912;2023-09-30T04:06:47;8.63;;;6.05;;
15256;SDS011;7731;50.720;6.912;2023-09-30T04:09:20;7.82;;;5.60;;
15256;SDS011;7731;50.720;6.912;2023-09-30T04:11:52;9.88;;;5.20;;
15256;SDS011;7731;50.720;6.912;2023-09-30T04:14:23;7.45;;;5.28;;
15256;SDS011;7731;50.720;6.912;2023-09-30T04:16:53;8.82;;;5.15;;
15256;SDS011;7731;50.720;6.912;2023-09-30T04:19:24;10.02;;;6.20;;
15256;SDS011;7731;50.720;6.912;2023-09-30T04:21:57;8.70;;;5.75;;
15256;SDS011;7731;50.720;6.912;2023-09-30T04:24:30;9.52;;;5.80;;
15256;SDS011;7731;50.720;6.912;2023-09-30T04:27:01;8.80;;;5.68;;
15256;SDS011;7731;50.720;6.912;2023-09-30T04:29:36;8.10;;;4.93;;
15256;SDS011;7731;50.720;6.912;2023-09-30T04:32:08;9.93;;;5.90;;
15256;SDS011;7731;50.720;6.912;2023-09-30T04:34:39;8.70;;;5.85;;
15256;SDS011;7731;50.720;6.912;2023-09-30T04:37:12;10.20;;;5.80;;
15256;SDS011;7731;50.720;6.912;2023-09-30T04:39:45;10.48;;;6.25;;
15256;SDS011;7731;50.720;6.912;2023-09-30T04:42:16;8.27;;;6.22;;
15256;SDS011;7731;50.720;6.912;2023-09-30T04:44:46;8.25;;;5.72;;
15256;SDS011;7731;50.720;6.912;2023-09-30T04:47:17;11.13;;;5.70;;
15256;SDS011;7731;50.720;6.912;2023-09-30T04:49:48;10.70;;;6.25;;
15256;SDS011;7731;50.720;6.912;2023-09-30T04:52:18;9.02;;;5.90;;
15256;SDS011;7731;50.720;6.912;2023-09-30T04:54:53;8.07;;;6.32;;
15256;SDS011;7731;50.720;6.912;2023-09-30T04:57:23;9.93;;;6.47;;
15256;SDS011;7731;50.720;6.912;2023-09-30T04:59:54;9.10;;;6.50;;
15256;SDS011;7731;50.720;6.912;2023-09-30T05:02:25;8.35;;;6.10;;
15256;SDS011;7731;50.720;6.912;2023-09-30T05:04:57;9.57;;;6.43;;
15256;SDS011;7731;50.720;6.912;2023-09-30T05:07:27;11.00;;;5.75;;
15256;SDS011;7731;50.720;6.912;2023-09-30T05:10:00;7.93;;;5.28;;
15256;SDS011;7731;50.720;6.912;2023-09-30T05:12:34;8.65;;;6.20;;
15256;SDS011;7731;50.720;6.912;2023-09-30T05:15:05;9.07;;;5.72;;
15256;SDS011;7731;50.720;6.912;2023-09-30T05:17:38;9.02;;;5.97;;
15256;SDS011;7731;50.720;6.912;2023-09-30T05:20:10;8.25;;;5.68;;
15256;SDS011;7731;50.720;6.912;2023-09-30T05:22:44;7.45;;;5.32;;
15256;SDS011;7731;50.720;6.912;2023-09-30T05:25:18;9.32;;;6.45;;
15256;SDS011;7731;50.720;6.912;2023-09-30T05:27:53;8.35;;;5.63;;
15256;SDS011;7731;50.720;6.912;2023-09-30T05:30:23;10.23;;;6.45;;
15256;SDS011;7731;50.720;6.912;2023-09-30T05:32:54;8.18;;;5.88;;
15256;SDS011;7731;50.720;6.912;2023-09-30T05:35:25;10.02;;;6.60;;
15256;SDS011;7731;50.720;6.912;2023-09-30T05:37:58;10.35;;;6.20;;
15256;SDS011;7731;50.720;6.912;2023-09-30T05:40:35;9.23;;;6.60;;
15256;SDS011;7731;50.720;6.912;2023-09-30T05:43:06;9.23;;;6.32;;
15256;SDS011;7731;50.720;6.912;2023-09-30T05:45:40;10.35;;;6.25;;
15256;SDS011;7731;50.720;6.912;2023-09-30T05:48:16;8.38;;;5.35;;
15256;SDS011;7731;50.720;6.912;2023-09-30T05:50:55;7.75;;;5.22;;
15256;SDS011;7731;50.720;6.912;2023-09-30T05:53:25;7.20;;;5.32;;
15256;SDS011;7731;50.720;6.912;2023-09-30T05:55:58;11.02;;;5.53;;
15256;SDS011;7731;50.720;6.912;2023-09-30T05:58:30;7.35;;;5.47;;
15256;SDS011;7731;50.720;6.912;2023-09-30T06:01:01;11.98;;;6.32;;
15256;SDS011;7731;50.720;6.912;2023-09-30T06:03:32;11.52;;;5.70;;
15256;SDS011;7731;50.720;6.912;2023-09-30T06:06:12;6.90;;;4.85;;
15256;SDS011;7731;50.720;6.912;2023-09-30T06:08:43;10.43;;;5.50;;
15256;SDS011;7731;50.720;6.912;2023-09-30T06:11:18;7.13;;;4.90;;
15256;SDS011;7731;50.720;6.912;2023-09-30T06:13:51;8.57;;;5.32;;
15256;SDS011;7731;50.720;6.912;2023-09-30T06:16:21;11.10;;;4.88;;
15256;SDS011;7731;50.720;6.912;2023-09-30T06:18:58;7.47;;;4.82;;
15256;SDS011;7731;50.720;6.912;2023-09-30T06:21:28;8.82;;;5.25;;
15256;SDS011;7731;50.720;6.912;2023-09-30T06:24:01;9.10;;;4.50;;
15256;SDS011;7731;50.720;6.912;2023-09-30T06:26:34;7.78;;;5.10;;
15256;SDS011;7731;50.720;6.912;2023-09-30T06:29:06;6.55;;;4.50;;
15256;SDS011;7731;50.720;6.912;2023-09-30T06:31:37;8.10;;;4.68;;
15256;SDS011;7731;50.720;6.912;2023-09-30T06:34:08;8.32;;;3.95;;
15256;SDS011;7731;50.720;6.912;2023-09-30T06:36:38;7.38;;;3.83;;
15256;SDS011;7731;50.720;6.912;2023-09-30T06:39:09;10.68;;;4.20;;
15256;SDS011;7731;50.720;6.912;2023-09-30T06:41:41;6.72;;;3.88;;
15256;SDS011;7731;50.720;6.912;2023-09-30T06:44:13;9.57;;;4.07;;
15256;SDS011;7731;50.720;6.912;2023-09-30T06:46:43;6.35;;;3.67;;
15256;SDS011;7731;50.720;6.912;2023-09-30T06:49:13;6.07;;;3.63;;
15256;SDS011;7731;50.720;6.912;2023-09-30T06:51:44;6.45;;;3.53;;
15256;SDS011;7731;50.720;6.912;2023-09-30T06:54:14;8.75;;;3.95;;
15256;SDS011;7731;50.720;6.912;2023-09-30T06:56:47;5.80;;;3.72;;
15256;SDS011;7731;50.720;6.912;2023-09-30T06:59:17;6.95;;;4.05;;
15256;SDS011;7731;50.720;6.912;2023-09-30T07:01:48;7.13;;;3.70;;
15256;SDS011;7731;50.720;6.912;2023-09-30T07:04:18;6.28;;;3.38;;
15256;SDS011;7731;50.720;6.912;2023-09-30T07:06:50;8.68;;;4.15;;
15256;SDS011;7731;50.720;6.912;2023-09-30T07:09:20;10.40;;;3.53;;
15256;SDS011;7731;50.720;6.912;2023-09-30T07:11:53;7.35;;;3.70;;
15256;SDS011;7731;50.720;6.912;2023-09-30T07:14:23;6.10;;;3.60;;
15256;SDS011;7731;50.720;6.912;2023-09-30T07:16:54;5.70;;;3.63;;
15256;SDS011;7731;50.720;6.912;2023-09-30T07:19:24;6.93;;;3.78;;
15256;SDS011;7731;50.720;6.912;2023-09-30T07:21:54;7.40;;;3.95;;
15256;SDS011;7731;50.720;6.912;2023-09-30T07:24:30;7.63;;;3.78;;
15256;SDS011;7731;50.720;6.912;2023-09-30T07:27:03;7.10;;;3.63;;
15256;SDS011;7731;50.720;6.912;2023-09-30T07:29:53;5.75;;;4.20;;
15256;SDS011;7731;50.720;6.912;2023-09-30T07:32:23;6.65;;;4.28;;
15256;SDS011;7731;50.720;6.912;2023-09-30T07:34:54;8.38;;;5.72;;
15256;SDS011;7731;50.720;6.912;2023-09-30T07:37:25;7.43;;;3.72;;
15256;SDS011;7731;50.720;6.912;2023-09-30T07:39:55;6.68;;;3.33;;
15256;SDS011;7731;50.720;6.912;2023-09-30T07:42:29;6.65;;;3.05;;
15256;SDS011;7731;50.720;6.912;2023-09-30T07:45:00;7.07;;;3.13;;
15256;SDS011;7731;50.720;6.912;2023-09-30T07:47:31;6.93;;;3.28;;
15256;SDS011;7731;50.720;6.912;2023-09-30T07:50:02;6.80;;;3.20;;
15256;SDS011;7731;50.720;6.912;2023-09-30T07:52:37;5.85;;;3.00;;
15256;SDS011;7731;50.720;6.912;2023-09-30T07:55:09;5.28;;;3.42;;
15256;SDS011;7731;50.720;6.912;2023-09-30T07:57:42;4.97;;;3.60;;
15256;SDS011;7731;50.720;6.912;2023-09-30T08:00:14;4.88;;;3.25;;
15256;SDS011;7731;50.720;6.912;2023-09-30T08:02:48;4.45;;;3.50;;
15256;SDS011;7731;50.720;6.912;2023-09-30T08:05:18;5.47;;;4.03;;
15256;SDS011;7731;50.720;6.912;2023-09-30T08:07:49;5.50;;;3.80;;
15256;SDS011;7731;50.720;6.912;2023-09-30T08:10:23;6.38;;;3.95;;
15256;SDS011;7731;50.720;6.912;2023-09-30T08:12:56;5.88;;;4.28;;
15256;SDS011;7731;50.720;6.912;2023-09-30T08:15:29;7.32;;;4.38;;
15256;SDS011;7731;50.720;6.912;2023-09-30T08:18:00;6.30;;;4.68;;
15256;SDS011;7731;50.720;6.912;2023-09-30T08:20:32;6.65;;;5.32;;
15256;SDS011;7731;50.720;6.912;2023-09-30T08:23:03;6.88;;;5.43;;
15256;SDS011;7731;50.720;6.912;2023-09-30T08:25:33;7.75;;;5.65;;
15256;SDS011;7731;50.720;6.912;2023-09-30T08:28:07;7.47;;;5.68;;
15256;SDS011;7731;50.720;6.912;2023-09-30T08:30:38;6.57;;;4.90;;
15256;SDS011;7731;50.720;6.912;2023-09-30T08:33:08;8.00;;;6.20;;
15256;SDS011;7731;50.720;6.912;2023-09-30T08:35:39;7.57;;;6.32;;
15256;SDS011;7731;50.720;6.912;2023-09-30T08:38:09;6.97;;;6.30;;
15256;SDS011;7731;50.720;6.912;2023-09-30T08:40:39;6.78;;;6.07;;
15256;SDS011;7731;50.720;6.912;2023-09-30T08:43:12;7.80;;;6.97;;
15256;SDS011;7731;50.720;6.912;2023-09-30T08:45:47;7.60;;;5.97;;
15256;SDS011;7731;50.720;6.912;2023-09-30T08:48:23;9.48;;;6.68;;
15256;SDS011;7731;50.720;6.912;2023-09-30T08:50:55;9.25;;;6.10;;
15256;SDS011;7731;50.720;6.912;2023-09-30T08:53:28;7.70;;;6.57;;
15256;SDS011;7731;50.720;6.912;2023-09-30T08:55:59;7.78;;;6.85;;
15256;SDS011;7731;50.720;6.912;2023-09-30T08:58:36;7.95;;;6.65;;
15256;SDS011;7731;50.720;6.912;2023-09-30T09:01:08;8.18;;;6.45;;
15256;SDS011;7731;50.720;6.912;2023-09-30T09:03:42;9.82;;;5.95;;
15256;SDS011;7731;50.720;6.912;2023-09-30T09:06:16;7.00;;;6.13;;
15256;SDS011;7731;50.720;6.912;2023-09-30T09:08:47;8.40;;;6.07;;
15256;SDS011;7731;50.720;6.912;2023-09-30T09:11:19;7.07;;;6.38;;
15256;SDS011;7731;50.720;6.912;2023-09-30T09:13:57;6.32;;;5.75;;
15256;SDS011;7731;50.720;6.912;2023-09-30T09:16:27;8.13;;;6.40;;
15256;SDS011;7731;50.720;6.912;2023-09-30T09:18:58;7.90;;;6.60;;
15256;SDS011;7731;50.720;6.912;2023-09-30T09:21:28;6.10;;;5.50;;
15256;SDS011;7731;50.720;6.912;2023-09-30T09:23:58;7.18;;;6.28;;
15256;SDS011;7731;50.720;6.912;2023-09-30T09:26:29;11.02;;;6.97;;
15256;SDS011;7731;50.720;6.912;2023-09-30T09:29:04;6.47;;;5.88;;
15256;SDS011;7731;50.720;6.912;2023-09-30T09:31:35;8.52;;;5.53;;
15256;SDS011;7731;50.720;6.912;2023-09-30T09:34:12;5.78;;;4.97;;
15256;SDS011;7731;50.720;6.912;2023-09-30T09:36:44;6.38;;;5.38;;
15256;SDS011;7731;50.720;6.912;2023-09-30T09:39:15;4.65;;;4.07;;
15256;SDS011;7731;50.720;6.912;2023-09-30T09:41:58;6.72;;;3.97;;
15256;SDS011;7731;50.720;6.912;2023-09-30T09:44:32;7.97;;;4.20;;
15256;SDS011;7731;50.720;6.912;2023-09-30T09:47:06;7.82;;;4.38;;
15256;SDS011;7731;50.720;6.912;2023-09-30T09:49:38;6.20;;;4.72;;
15256;SDS011;7731;50.720;6.912;2023-09-30T09:52:09;6.55;;;4.60;;
15256;SDS011;7731;50.720;6.912;2023-09-30T09:54:42;5.35;;;4.72;;
15256;SDS011;7731;50.720;6.912;2023-09-30T09:57:14;6.25;;;3.72;;
15256;SDS011;7731;50.720;6.912;2023-09-30T09:59:49;8.50;;;4.95;;
15256;SDS011;7731;50.720;6.912;2023-09-30T10:02:25;6.97;;;4.68;;
15256;SDS011;7731;50.720;6.912;2023-09-30T10:04:57;6.28;;;5.03;;
15256;SDS011;7731;50.720;6.912;2023-09-30T10:07:29;5.10;;;3.83;;
15256;SDS011;7731;50.720;6.912;2023-09-30T10:10:06;5.80;;;4.55;;
15256;SDS011;7731;50.720;6.912;2023-09-30T10:12:43;6.10;;;3.80;;
15256;SDS011;7731;50.720;6.912;2023-09-30T10:18:11;5.07;;;2.95;;
15256;SDS011;7731;50.720;6.912;2023-09-30T10:20:43;3.80;;;2.95;;
15256;SDS011;7731;50.720;6.912;2023-09-30T10:23:25;4.47;;;2.58;;
15256;SDS011;7731;50.720;6.912;2023-09-30T10:26:13;5.72;;;2.78;;
15256;SDS011;7731;50.720;6.912;2023-09-30T10:28:45;3.97;;;2.70;;
15256;SDS011;7731;50.720;6.912;2023-09-30T10:31:19;4.85;;;3.17;;
15256;SDS011;7731;50.720;6.912;2023-09-30T10:36:49;7.35;;;3.42;;
15256;SDS011;7731;50.720;6.912;2023-09-30T10:48:36;3.40;;;2.40;;
15256;SDS011;7731;50.720;6.912;2023-09-30T10:51:12;4.32;;;2.53;;
15256;SDS011;7731;50.720;6.912;2023-09-30T10:53:48;4.22;;;2.67;;
15256;SDS011;7731;50.720;6.912;2023-09-30T10:56:23;4.30;;;2.67;;
15256;SDS011;7731;50.720;6.912;2023-09-30T10:59:02;4.28;;;2.80;;
15256;SDS011;7731;50.720;6.912;2023-09-30T11:01:32;4.40;;;2.88;;
15256;SDS011;7731;50.720;6.912;2023-09-30T11:04:07;5.93;;;2.65;;
15256;SDS011;7731;50.720;6.912;2023-09-30T11:06:39;6.13;;;2.95;;
15256;SDS011;7731;50.720;6.912;2023-09-30T11:09:15;6.47;;;3.17;;
15256;SDS011;7731;50.720;6.912;2023-09-30T11:11:47;6.03;;;3.25;;
15256;SDS011;7731;50.720;6.912;2023-09-30T11:14:23;6.18;;;2.90;;
15256;SDS011;7731;50.720;6.912;2023-09-30T11:16:57;5.97;;;3.10;;
15256;SDS011;7731;50.720;6.912;2023-09-30T11:19:36;6.50;;;2.90;;
15256;SDS011;7731;50.720;6.912;2023-09-30T11:22:17;5.18;;;3.10;;
15256;SDS011;7731;50.720;6.912;2023-09-30T11:24:48;7.38;;;3.22;;
15256;SDS011;7731;50.720;6.912;2023-09-30T11:27:22;7.32;;;2.88;;
15256;SDS011;7731;50.720;6.912;2023-09-30T11:29:54;6.13;;;2.88;;
15256;SDS011;7731;50.720;6.912;2023-09-30T11:32:24;6.13;;;2.90;;
15256;SDS011;7731;50.720;6.912;2023-09-30T11:34:59;6.47;;;3.38;;
15256;SDS011;7731;50.720;6.912;2023-09-30T11:37:33;5.32;;;3.15;;
15256;SDS011;7731;50.720;6.912;2023-09-30T11:40:10;4.30;;;2.63;;
15256;SDS011;7731;50.720;6.912;2023-09-30T11:45:39;5.85;;;2.47;;
15256;SDS011;7731;50.720;6.912;2023-09-30T11:48:16;4.68;;;2.92;;
15256;SDS011;7731;50.720;6.912;2023-09-30T11:50:51;5.72;;;3.10;;
15256;SDS011;7731;50.720;6.912;2023-09-30T11:53:23;4.80;;;2.83;;
15256;SDS011;7731;50.720;6.912;2023-09-30T11:55:54;5.93;;;2.45;;
15256;SDS011;7731;50.720;6.912;2023-09-30T11:58:25;5.88;;;2.55;;
15256;SDS011;7731;50.720;6.912;2023-09-30T12:00:59;4.82;;;3.13;;
15256;SDS011;7731;50.720;6.912;2023-09-30T12:03:33;5.00;;;2.53;;
15256;SDS011;7731;50.720;6.912;2023-09-30T12:06:09;8.15;;;3.10;;
15256;SDS011;7731;50.720;6.912;2023-09-30T12:08:40;3.72;;;2.70;;
15256;SDS011;7731;50.720;6.912;2023-09-30T12:11:10;5.13;;;3.08;;
15256;SDS011;7731;50.720;6.912;2023-09-30T12:13:45;3.55;;;2.80;;
15256;SDS011;7731;50.720;6.912;2023-09-30T12:16:17;4.63;;;2.72;;
15256;SDS011;7731;50.720;6.912;2023-09-30T12:18:48;6.25;;;2.63;;
15256;SDS011;7731;50.720;6.912;2023-09-30T12:21:20;6.13;;;3.00;;
15256;SDS011;7731;50.720;6.912;2023-09-30T12:23:57;5.93;;;3.05;;
15256;SDS011;7731;50.720;6.912;2023-09-30T12:26:28;6.05;;;3.30;;
15256;SDS011;7731;50.720;6.912;2023-09-30T12:29:02;5.72;;;3.22;;
15256;SDS011;7731;50.720;6.912;2023-09-30T12:31:32;4.28;;;2.92;;
15256;SDS011;7731;50.720;6.912;2023-09-30T12:34:18;6.22;;;3.22;;
15256;SDS011;7731;50.720;6.912;2023-09-30T12:36:52;6.93;;;3.30;;
15256;SDS011;7731;50.720;6.912;2023-09-30T12:39:24;4.78;;;2.78;;
15256;SDS011;7731;50.720;6.912;2023-09-30T12:42:00;4.32;;;2.60;;
15256;SDS011;7731;50.720;6.912;2023-09-30T12:44:35;5.35;;;3.08;;
15256;SDS011;7731;50.720;6.912;2023-09-30T12:47:06;5.10;;;2.85;;
15256;SDS011;7731;50.720;6.912;2023-09-30T12:49:36;6.30;;;2.95;;
15256;SDS011;7731;50.720;6.912;2023-09-30T12:52:11;4.90;;;2.67;;
15256;SDS011;7731;50.720;6.912;2023-09-30T12:54:41;7.25;;;3.13;;
15256;SDS011;7731;50.720;6.912;2023-09-30T12:57:14;4.53;;;3.22;;
15256;SDS011;7731;50.720;6.912;2023-09-30T12:59:45;3.85;;;2.38;;
15256;SDS011;7731;50.720;6.912;2023-09-30T13:02:16;4.03;;;2.40;;
15256;SDS011;7731;50.720;6.912;2023-09-30T13:04:47;4.53;;;3.08;;
15256;SDS011;7731;50.720;6.912;2023-09-30T13:07:20;2.97;;;2.00;;
15256;SDS011;7731;50.720;6.912;2023-09-30T13:09:51;4.97;;;2.70;;
15256;SDS011;7731;50.720;6.912;2023-09-30T13:12:23;4.72;;;2.40;;
15256;SDS011;7731;50.720;6.912;2023-09-30T13:14:54;6.30;;;2.58;;
15256;SDS011;7731;50.720;6.912;2023-09-30T13:17:24;6.85;;;3.13;;
15256;SDS011;7731;50.720;6.912;2023-09-30T13:19:59;5.40;;;2.50;;
15256;SDS011;7731;50.720;6.912;2023-09-30T13:22:34;3.92;;;2.20;;
15256;SDS011;7731;50.720;6.912;2023-09-30T13:25:06;6.38;;;2.47;;
15256;SDS011;7731;50.720;6.912;2023-09-30T13:27:40;5.50;;;2.60;;
15256;SDS011;7731;50.720;6.912;2023-09-30T13:30:10;4.63;;;2.60;;
15256;SDS011;7731;50.720;6.912;2023-09-30T13:32:44;9.02;;;4.93;;
15256;SDS011;7731;50.720;6.912;2023-09-30T13:35:14;7.80;;;2.75;;
15256;SDS011;7731;50.720;6.912;2023-09-30T13:37:51;4.28;;;2.30;;
15256;SDS011;7731;50.720;6.912;2023-09-30T13:40:21;3.88;;;2.50;;
15256;SDS011;7731;50.720;6.912;2023-09-30T13:42:51;3.30;;;2.17;;
15256;SDS011;7731;50.720;6.912;2023-09-30T13:45:23;4.38;;;2.45;;
15256;SDS011;7731;50.720;6.912;2023-09-30T13:47:54;5.53;;;2.80;;
15256;SDS011;7731;50.720;6.912;2023-09-30T13:50:27;5.40;;;2.67;;
15256;SDS011;7731;50.720;6.912;2023-09-30T13:53:01;4.30;;;3.08;;
15256;SDS011;7731;50.720;6.912;2023-09-30T13:55:32;3.75;;;2.70;;
15256;SDS011;7731;50.720;6.912;2023-09-30T13:58:02;4.88;;;2.72;;
15256;SDS011;7731;50.720;6.912;2023-09-30T14:00:33;4.18;;;2.83;;
15256;SDS011;7731;50.720;6.912;2023-09-30T14:03:06;7.53;;;3.38;;
15256;SDS011;7731;50.720;6.912;2023-09-30T14:05:36;4.55;;;2.55;;
15256;SDS011;7731;50.720;6.912;2023-09-30T14:08:11;4.25;;;2.80;;
15256;SDS011;7731;50.720;6.912;2023-09-30T14:10:42;5.03;;;2.72;;
15256;SDS011;7731;50.720;6.912;2023-09-30T14:13:16;4.70;;;2.67;;
15256;SDS011;7731;50.720;6.912;2023-09-30T14:15:46;5.15;;;2.92;;
15256;SDS011;7731;50.720;6.912;2023-09-30T14:18:21;5.28;;;3.22;;
15256;SDS011;7731;50.720;6.912;2023-09-30T14:20:52;4.95;;;3.20;;
15256;SDS011;7731;50.720;6.912;2023-09-30T14:23:25;6.47;;;3.22;;
15256;SDS011;7731;50.720;6.912;2023-09-30T14:25:55;3.75;;;2.72;;
15256;SDS011;7731;50.720;6.912;2023-09-30T14:28:26;5.28;;;3.10;;
15256;SDS011;7731;50.720;6.912;2023-09-30T14:30:56;5.38;;;3.15;;
15256;SDS011;7731;50.720;6.912;2023-09-30T14:33:26;5.97;;;2.80;;
15256;SDS011;7731;50.720;6.912;2023-09-30T14:35:57;5.95;;;2.92;;
15256;SDS011;7731;50.720;6.912;2023-09-30T14:38:30;4.10;;;2.80;;
15256;SDS011;7731;50.720;6.912;2023-09-30T14:41:00;5.38;;;2.95;;
15256;SDS011;7731;50.720;6.912;2023-09-30T14:43:31;5.70;;;2.92;;
15256;SDS011;7731;50.720;6.912;2023-09-30T14:46:01;4.75;;;3.00;;
15256;SDS011;7731;50.720;6.912;2023-09-30T14:48:31;3.72;;;2.90;;
15256;SDS011;7731;50.720;6.912;2023-09-30T14:51:02;5.45;;;2.90;;
15256;SDS011;7731;50.720;6.912;2023-09-30T14:53:37;5.78;;;3.20;;
15256;SDS011;7731;50.720;6.912;2023-09-30T14:56:14;4.60;;;2.97;;
15256;SDS011;7731;50.720;6.912;2023-09-30T14:58:45;4.57;;;2.88;;
15256;SDS011;7731;50.720;6.912;2023-09-30T15:01:15;6.07;;;3.45;;
15256;SDS011;7731;50.720;6.912;2023-09-30T15:03:46;5.47;;;3.30;;
15256;SDS011;7731;50.720;6.912;2023-09-30T15:06:18;4.53;;;3.22;;
15256;SDS011;7731;50.720;6.912;2023-09-30T15:08:53;5.40;;;3.22;;
15256;SDS011;7731;50.720;6.912;2023-09-30T15:11:24;5.30;;;2.75;;
15256;SDS011;7731;50.720;6.912;2023-09-30T15:13:54;5.70;;;3.35;;
15256;SDS011;7731;50.720;6.912;2023-09-30T15:16:27;6.25;;;2.97;;
15256;SDS011;7731;50.720;6.912;2023-09-30T15:18:57;5.53;;;3.47;;
15256;SDS011;7731;50.720;6.912;2023-09-30T15:21:29;5.95;;;3.42;;
15256;SDS011;7731;50.720;6.912;2023-09-30T15:24:07;4.30;;;2.67;;
15256;SDS011;7731;50.720;6.912;2023-09-30T15:26:40;6.57;;;3.17;;
15256;SDS011;7731;50.720;6.912;2023-09-30T15:29:10;6.75;;;3.55;;
15256;SDS011;7731;50.720;6.912;2023-09-30T15:31:42;4.18;;;2.80;;
15256;SDS011;7731;50.720;6.912;2023-09-30T15:34:12;6.22;;;2.85;;
15256;SDS011;7731;50.720;6.912;2023-09-30T15:36:43;5.15;;;3.10;;
15256;SDS011;7731;50.720;6.912;2023-09-30T15:39:16;6.82;;;3.05;;
15256;SDS011;7731;50.720;6.912;2023-09-30T15:41:46;5.22;;;3.20;;
15256;SDS011;7731;50.720;6.912;2023-09-30T15:44:16;4.88;;;3.00;;
15256;SDS011;7731;50.720;6.912;2023-09-30T15:46:47;4.97;;;2.97;;
15256;SDS011;7731;50.720;6.912;2023-09-30T15:49:17;4.78;;;2.78;;